Kenna, WV (25248)

4:04 AM EST on February 13, 2016 (GMT -0500)
Poca River Rd | | Change Station
CLOSE
Current Station
Personal Weather Station
Location: Sissonville, WV
Elevation: 625 ft
Nearby Weather Stations

Elev 625 ft 38.54 °N, 81.63 °W | Updated 4 minutes ago

Mostly Cloudy
Mostly Cloudy
17.6 °F
Feels Like 18 °F
N
2.0
Wind Variable Wind from South
Gusts 3.0 mph

Today
High -- | Low -- °F
--% Chance of Precip.
Yesterday
High -- | Low -- °F
Precip. -- in
Pressure 30.32 in
Visibility 10.0 miles
Clouds Few 4000 ft
Scattered Clouds 5000 ft
Overcast 7000 ft
Windchill 18 °F
Dew Point 6 °F
Humidity 59%
Rainfall 0.00 in
Snow Depth Not available.
7:20 AM 6:01 PM
Waxing Crescent, 28% visible
METAR KCRW 130854Z 31010G16KT 270V330 10SM FEW040 SCT050 OVC070 M08/M17 A3028 RMK AO2 SLP266 60000 T10831167 53022
Pressure 30.32 in
Visibility 10.0 miles
Clouds Few 4000 ft
Scattered Clouds 5000 ft
Overcast 7000 ft
Windchill 18 °F
Dew Point 6 °F
Humidity 59%
Rainfall 0.00 in
Snow Depth Not available.
7:20 AM 6:01 PM
Waxing Crescent, 28% visible
METAR KCRW 130854Z 31010G16KT 270V330 10SM FEW040 SCT050 OVC070 M08/M17 A3028 RMK AO2 SLP266 60000 T10831167 53022

10-Day Weather Forecast

Almanac

Astronomy

Feb. 13, 2016 Rise Set
Actual Time
Civil Twilight
Nautical Twilight
Astronomical Twilight
Moon
Length of Visible Light
Length of Day
Tomorrow will be .
, % of the Moon is Illuminated

Today's Extremes

State Highs State Lows

Community

WunderPhotos

Upload Photos

1,892,536 photos uploaded!

WunderBlog® & News

Nearby

Air Quality

  Air Quality AQ Index Pollutant
Not available.

Snow Depth

Station Depth Elevation

Earthquake Activity

City Distance Mag. Time & Date
Minimum magnitude displayed is 2.5.

Coastal Water Temperatures

Place Temperature

Stations

Nearby Weather Stations

Station Location Temp. Windchill Dew Point Humidity Wind Precip. Elev Updated Type
                   

Watches & Warnings

There are currently no watches in effect.